sensor_id;sensor_type;location;lat;lon;timestamp;P1;durP1;ratioP1;P2;durP2;ratioP2
1715;SDS011;855;48.824;9.220;2023-01-30T00:00:54;12.43;;;6.93;;
1715;SDS011;855;48.824;9.220;2023-01-30T00:03:22;18.80;;;7.87;;
1715;SDS011;855;48.824;9.220;2023-01-30T00:05:50;18.03;;;7.60;;
1715;SDS011;855;48.824;9.220;2023-01-30T00:08:17;21.97;;;6.87;;
1715;SDS011;855;48.824;9.220;2023-01-30T00:10:44;18.73;;;8.43;;
1715;SDS011;855;48.824;9.220;2023-01-30T00:13:12;12.87;;;6.83;;
1715;SDS011;855;48.824;9.220;2023-01-30T00:15:41;17.07;;;7.87;;
1715;SDS011;855;48.824;9.220;2023-01-30T00:18:08;27.67;;;10.73;;
1715;SDS011;855;48.824;9.220;2023-01-30T00:20:35;15.10;;;7.80;;
1715;SDS011;855;48.824;9.220;2023-01-30T00:23:02;23.47;;;7.83;;
1715;SDS011;855;48.824;9.220;2023-01-30T00:25:29;20.27;;;7.47;;
1715;SDS011;855;48.824;9.220;2023-01-30T00:27:57;18.83;;;8.07;;
1715;SDS011;855;48.824;9.220;2023-01-30T00:30:25;17.70;;;7.90;;
1715;SDS011;855;48.824;9.220;2023-01-30T00:32:56;13.27;;;6.30;;
1715;SDS011;855;48.824;9.220;2023-01-30T00:35:23;20.13;;;8.00;;
1715;SDS011;855;48.824;9.220;2023-01-30T00:37:53;23.63;;;9.20;;
1715;SDS011;855;48.824;9.220;2023-01-30T00:40:23;25.43;;;8.73;;
1715;SDS011;855;48.824;9.220;2023-01-30T00:42:51;26.00;;;6.83;;
1715;SDS011;855;48.824;9.220;2023-01-30T00:45:35;30.13;;;8.40;;
1715;SDS011;855;48.824;9.220;2023-01-30T00:48:29;18.07;;;8.43;;
1715;SDS011;855;48.824;9.220;2023-01-30T00:50:55;12.10;;;6.17;;
1715;SDS011;855;48.824;9.220;2023-01-30T00:53:22;15.63;;;6.73;;
1715;SDS011;855;48.824;9.220;2023-01-30T00:55:49;23.30;;;7.70;;
1715;SDS011;855;48.824;9.220;2023-01-30T00:58:17;16.00;;;7.00;;
1715;SDS011;855;48.824;9.220;2023-01-30T01:00:44;15.43;;;6.60;;
1715;SDS011;855;48.824;9.220;2023-01-30T01:03:10;18.90;;;8.40;;
1715;SDS011;855;48.824;9.220;2023-01-30T01:05:39;15.33;;;6.50;;
1715;SDS011;855;48.824;9.220;2023-01-30T01:08:05;11.73;;;5.77;;
1715;SDS011;855;48.824;9.220;2023-01-30T01:10:32;19.93;;;8.07;;
1715;SDS011;855;48.824;9.220;2023-01-30T01:12:59;19.50;;;7.50;;
1715;SDS011;855;48.824;9.220;2023-01-30T01:15:26;19.97;;;8.40;;
1715;SDS011;855;48.824;9.220;2023-01-30T01:17:53;19.00;;;7.53;;
1715;SDS011;855;48.824;9.220;2023-01-30T01:20:20;18.60;;;9.00;;
1715;SDS011;855;48.824;9.220;2023-01-30T01:22:51;16.00;;;7.83;;
1715;SDS011;855;48.824;9.220;2023-01-30T01:25:19;14.20;;;6.93;;
1715;SDS011;855;48.824;9.220;2023-01-30T01:27:46;16.80;;;7.70;;
1715;SDS011;855;48.824;9.220;2023-01-30T01:30:13;21.07;;;8.97;;
1715;SDS011;855;48.824;9.220;2023-01-30T01:32:41;19.20;;;7.50;;
1715;SDS011;855;48.824;9.220;2023-01-30T01:35:08;17.00;;;7.77;;
1715;SDS011;855;48.824;9.220;2023-01-30T01:37:35;22.83;;;8.07;;
1715;SDS011;855;48.824;9.220;2023-01-30T01:40:05;15.77;;;7.00;;
1715;SDS011;855;48.824;9.220;2023-01-30T01:42:50;18.70;;;7.97;;
1715;SDS011;855;48.824;9.220;2023-01-30T01:45:17;16.90;;;8.40;;
1715;SDS011;855;48.824;9.220;2023-01-30T01:47:48;16.70;;;6.90;;
1715;SDS011;855;48.824;9.220;2023-01-30T01:50:24;17.00;;;7.33;;
1715;SDS011;855;48.824;9.220;2023-01-30T01:52:54;20.53;;;7.73;;
1715;SDS011;855;48.824;9.220;2023-01-30T01:55:27;18.87;;;8.43;;
1715;SDS011;855;48.824;9.220;2023-01-30T01:57:55;14.27;;;6.90;;
1715;SDS011;855;48.824;9.220;2023-01-30T02:00:25;16.70;;;6.30;;
1715;SDS011;855;48.824;9.220;2023-01-30T02:02:54;15.23;;;7.07;;
1715;SDS011;855;48.824;9.220;2023-01-30T02:05:23;15.50;;;7.00;;
1715;SDS011;855;48.824;9.220;2023-01-30T02:07:53;15.40;;;7.00;;
1715;SDS011;855;48.824;9.220;2023-01-30T02:10:30;16.07;;;6.60;;
1715;SDS011;855;48.824;9.220;2023-01-30T02:13:05;13.43;;;6.30;;
1715;SDS011;855;48.824;9.220;2023-01-30T02:15:32;17.60;;;6.83;;
1715;SDS011;855;48.824;9.220;2023-01-30T02:17:59;19.50;;;6.73;;
1715;SDS011;855;48.824;9.220;2023-01-30T02:20:28;14.30;;;6.60;;
1715;SDS011;855;48.824;9.220;2023-01-30T02:23:25;14.70;;;6.63;;
1715;SDS011;855;48.824;9.220;2023-01-30T02:26:37;14.73;;;6.67;;
1715;SDS011;855;48.824;9.220;2023-01-30T02:29:31;15.47;;;7.43;;
1715;SDS011;855;48.824;9.220;2023-01-30T02:32:24;16.10;;;7.27;;
1715;SDS011;855;48.824;9.220;2023-01-30T02:34:59;16.70;;;8.07;;
1715;SDS011;855;48.824;9.220;2023-01-30T02:37:35;14.30;;;5.90;;
1715;SDS011;855;48.824;9.220;2023-01-30T02:40:18;21.90;;;8.50;;
1715;SDS011;855;48.824;9.220;2023-01-30T02:43:03;13.50;;;7.03;;
1715;SDS011;855;48.824;9.220;2023-01-30T02:45:40;24.30;;;7.90;;
1715;SDS011;855;48.824;9.220;2023-01-30T02:48:12;18.57;;;6.63;;
1715;SDS011;855;48.824;9.220;2023-01-30T02:50:43;15.60;;;6.70;;
1715;SDS011;855;48.824;9.220;2023-01-30T02:53:14;15.00;;;7.03;;
1715;SDS011;855;48.824;9.220;2023-01-30T02:55:41;11.80;;;5.70;;
1715;SDS011;855;48.824;9.220;2023-01-30T02:58:08;19.10;;;7.40;;
1715;SDS011;855;48.824;9.220;2023-01-30T03:00:42;15.70;;;6.33;;
1715;SDS011;855;48.824;9.220;2023-01-30T03:03:31;16.57;;;7.50;;
1715;SDS011;855;48.824;9.220;2023-01-30T03:06:20;14.40;;;6.60;;
1715;SDS011;855;48.824;9.220;2023-01-30T03:09:06;17.70;;;6.70;;
1715;SDS011;855;48.824;9.220;2023-01-30T03:11:43;18.90;;;5.50;;
1715;SDS011;855;48.824;9.220;2023-01-30T03:14:18;21.47;;;8.60;;
1715;SDS011;855;48.824;9.220;2023-01-30T03:16:51;18.07;;;6.47;;
1715;SDS011;855;48.824;9.220;2023-01-30T03:19:22;20.50;;;8.67;;
1715;SDS011;855;48.824;9.220;2023-01-30T03:21:49;16.43;;;7.17;;
1715;SDS011;855;48.824;9.220;2023-01-30T03:24:16;22.03;;;7.37;;
1715;SDS011;855;48.824;9.220;2023-01-30T03:26:44;15.83;;;6.40;;
1715;SDS011;855;48.824;9.220;2023-01-30T03:29:14;16.50;;;6.30;;
1715;SDS011;855;48.824;9.220;2023-01-30T03:31:40;19.57;;;7.07;;
1715;SDS011;855;48.824;9.220;2023-01-30T03:34:07;16.40;;;6.27;;
1715;SDS011;855;48.824;9.220;2023-01-30T03:36:35;15.97;;;6.03;;
1715;SDS011;855;48.824;9.220;2023-01-30T03:39:02;14.53;;;7.20;;
1715;SDS011;855;48.824;9.220;2023-01-30T03:41:29;12.03;;;5.53;;
1715;SDS011;855;48.824;9.220;2023-01-30T03:43:56;16.90;;;7.43;;
1715;SDS011;855;48.824;9.220;2023-01-30T03:46:23;14.83;;;7.23;;
1715;SDS011;855;48.824;9.220;2023-01-30T03:48:50;15.33;;;6.23;;
1715;SDS011;855;48.824;9.220;2023-01-30T03:51:16;12.70;;;5.90;;
1715;SDS011;855;48.824;9.220;2023-01-30T03:53:45;12.20;;;6.80;;
1715;SDS011;855;48.824;9.220;2023-01-30T03:56:11;13.03;;;6.47;;
1715;SDS011;855;48.824;9.220;2023-01-30T03:58:38;17.57;;;5.20;;
1715;SDS011;855;48.824;9.220;2023-01-30T04:01:05;11.67;;;4.83;;
1715;SDS011;855;48.824;9.220;2023-01-30T04:03:32;13.33;;;6.33;;
1715;SDS011;855;48.824;9.220;2023-01-30T04:05:59;13.60;;;5.87;;
1715;SDS011;855;48.824;9.220;2023-01-30T04:08:26;9.77;;;4.83;;
1715;SDS011;855;48.824;9.220;2023-01-30T04:10:54;13.67;;;5.53;;
1715;SDS011;855;48.824;9.220;2023-01-30T04:13:21;17.77;;;5.33;;
1715;SDS011;855;48.824;9.220;2023-01-30T04:15:47;11.30;;;5.03;;
1715;SDS011;855;48.824;9.220;2023-01-30T04:18:14;16.90;;;5.67;;
1715;SDS011;855;48.824;9.220;2023-01-30T04:20:41;19.10;;;6.00;;
1715;SDS011;855;48.824;9.220;2023-01-30T04:23:08;13.27;;;5.03;;
1715;SDS011;855;48.824;9.220;2023-01-30T04:25:35;12.30;;;4.73;;
1715;SDS011;855;48.824;9.220;2023-01-30T04:28:03;8.47;;;4.40;;
1715;SDS011;855;48.824;9.220;2023-01-30T04:30:30;18.30;;;6.17;;
1715;SDS011;855;48.824;9.220;2023-01-30T04:32:57;7.10;;;3.97;;
1715;SDS011;855;48.824;9.220;2023-01-30T04:35:24;10.90;;;5.13;;
1715;SDS011;855;48.824;9.220;2023-01-30T04:37:50;14.80;;;5.43;;
1715;SDS011;855;48.824;9.220;2023-01-30T04:40:17;13.03;;;4.80;;
1715;SDS011;855;48.824;9.220;2023-01-30T04:42:44;10.03;;;5.10;;
1715;SDS011;855;48.824;9.220;2023-01-30T04:45:12;8.90;;;4.70;;
1715;SDS011;855;48.824;9.220;2023-01-30T04:47:39;9.13;;;4.03;;
1715;SDS011;855;48.824;9.220;2023-01-30T04:50:06;8.80;;;4.80;;
1715;SDS011;855;48.824;9.220;2023-01-30T04:52:34;10.00;;;4.90;;
1715;SDS011;855;48.824;9.220;2023-01-30T04:55:01;10.70;;;4.97;;
1715;SDS011;855;48.824;9.220;2023-01-30T04:57:28;9.13;;;4.70;;
1715;SDS011;855;48.824;9.220;2023-01-30T04:59:54;17.83;;;6.33;;
1715;SDS011;855;48.824;9.220;2023-01-30T05:02:22;7.73;;;4.90;;
1715;SDS011;855;48.824;9.220;2023-01-30T05:04:49;8.10;;;4.23;;
1715;SDS011;855;48.824;9.220;2023-01-30T05:07:16;7.90;;;3.40;;
1715;SDS011;855;48.824;9.220;2023-01-30T05:09:43;11.20;;;3.40;;
1715;SDS011;855;48.824;9.220;2023-01-30T05:12:10;6.17;;;3.47;;
1715;SDS011;855;48.824;9.220;2023-01-30T05:14:36;9.33;;;4.60;;
1715;SDS011;855;48.824;9.220;2023-01-30T05:17:05;4.60;;;2.77;;
1715;SDS011;855;48.824;9.220;2023-01-30T05:19:33;10.20;;;3.97;;
1715;SDS011;855;48.824;9.220;2023-01-30T05:22:00;8.43;;;4.87;;
1715;SDS011;855;48.824;9.220;2023-01-30T05:24:27;6.50;;;3.57;;
1715;SDS011;855;48.824;9.220;2023-01-30T05:26:53;7.93;;;3.80;;
1715;SDS011;855;48.824;9.220;2023-01-30T05:29:20;10.83;;;4.03;;
1715;SDS011;855;48.824;9.220;2023-01-30T05:31:47;5.43;;;3.00;;
1715;SDS011;855;48.824;9.220;2023-01-30T05:34:14;16.97;;;5.40;;
1715;SDS011;855;48.824;9.220;2023-01-30T05:36:42;4.70;;;3.23;;
1715;SDS011;855;48.824;9.220;2023-01-30T05:39:09;11.13;;;3.87;;
1715;SDS011;855;48.824;9.220;2023-01-30T05:41:36;7.53;;;4.77;;
1715;SDS011;855;48.824;9.220;2023-01-30T05:44:03;6.17;;;3.57;;
1715;SDS011;855;48.824;9.220;2023-01-30T05:46:30;5.33;;;3.43;;
1715;SDS011;855;48.824;9.220;2023-01-30T05:48:57;8.17;;;4.40;;
1715;SDS011;855;48.824;9.220;2023-01-30T05:51:24;8.50;;;3.90;;
1715;SDS011;855;48.824;9.220;2023-01-30T05:53:53;5.60;;;3.27;;
1715;SDS011;855;48.824;9.220;2023-01-30T05:56:20;3.97;;;3.00;;
1715;SDS011;855;48.824;9.220;2023-01-30T05:58:51;3.63;;;3.00;;
1715;SDS011;855;48.824;9.220;2023-01-30T06:01:19;7.40;;;3.70;;
1715;SDS011;855;48.824;9.220;2023-01-30T06:03:47;4.60;;;3.33;;
1715;SDS011;855;48.824;9.220;2023-01-30T06:06:14;4.97;;;3.03;;
1715;SDS011;855;48.824;9.220;2023-01-30T06:08:41;9.03;;;3.67;;
1715;SDS011;855;48.824;9.220;2023-01-30T06:11:10;4.50;;;2.80;;
1715;SDS011;855;48.824;9.220;2023-01-30T06:13:38;6.23;;;2.83;;
1715;SDS011;855;48.824;9.220;2023-01-30T06:16:07;9.50;;;2.93;;
1715;SDS011;855;48.824;9.220;2023-01-30T06:18:36;17.00;;;4.70;;
1715;SDS011;855;48.824;9.220;2023-01-30T06:21:03;8.40;;;3.83;;
1715;SDS011;855;48.824;9.220;2023-01-30T06:23:31;7.77;;;2.87;;
1715;SDS011;855;48.824;9.220;2023-01-30T06:25:58;4.70;;;3.00;;
1715;SDS011;855;48.824;9.220;2023-01-30T06:28:26;2.83;;;2.10;;
1715;SDS011;855;48.824;9.220;2023-01-30T06:30:53;7.43;;;2.80;;
1715;SDS011;855;48.824;9.220;2023-01-30T06:33:20;10.77;;;4.17;;
1715;SDS011;855;48.824;9.220;2023-01-30T06:35:47;6.83;;;3.70;;
1715;SDS011;855;48.824;9.220;2023-01-30T06:38:15;8.30;;;3.93;;
1715;SDS011;855;48.824;9.220;2023-01-30T06:40:43;12.27;;;4.40;;
1715;SDS011;855;48.824;9.220;2023-01-30T06:43:11;8.60;;;2.73;;
1715;SDS011;855;48.824;9.220;2023-01-30T06:45:40;10.83;;;3.07;;
1715;SDS011;855;48.824;9.220;2023-01-30T06:48:07;7.30;;;4.60;;
1715;SDS011;855;48.824;9.220;2023-01-30T06:50:34;5.83;;;3.03;;
1715;SDS011;855;48.824;9.220;2023-01-30T06:53:01;4.73;;;2.80;;
1715;SDS011;855;48.824;9.220;2023-01-30T06:55:30;12.30;;;5.33;;
1715;SDS011;855;48.824;9.220;2023-01-30T06:58:02;7.33;;;2.97;;
1715;SDS011;855;48.824;9.220;2023-01-30T07:00:30;14.33;;;5.20;;
1715;SDS011;855;48.824;9.220;2023-01-30T07:02:58;8.10;;;2.97;;
1715;SDS011;855;48.824;9.220;2023-01-30T07:05:25;8.00;;;3.23;;
1715;SDS011;855;48.824;9.220;2023-01-30T07:07:52;8.20;;;4.07;;
1715;SDS011;855;48.824;9.220;2023-01-30T07:10:19;11.07;;;3.73;;
1715;SDS011;855;48.824;9.220;2023-01-30T07:12:46;5.67;;;3.40;;
1715;SDS011;855;48.824;9.220;2023-01-30T07:15:13;6.10;;;3.00;;
1715;SDS011;855;48.824;9.220;2023-01-30T07:17:40;5.20;;;3.07;;
1715;SDS011;855;48.824;9.220;2023-01-30T07:20:09;8.00;;;4.30;;
1715;SDS011;855;48.824;9.220;2023-01-30T07:22:36;13.60;;;5.93;;
1715;SDS011;855;48.824;9.220;2023-01-30T07:25:04;5.10;;;3.37;;
1715;SDS011;855;48.824;9.220;2023-01-30T07:27:31;8.83;;;3.73;;
1715;SDS011;855;48.824;9.220;2023-01-30T07:29:58;6.10;;;3.40;;
1715;SDS011;855;48.824;9.220;2023-01-30T07:32:25;4.80;;;3.10;;
1715;SDS011;855;48.824;9.220;2023-01-30T07:34:52;4.90;;;2.20;;
1715;SDS011;855;48.824;9.220;2023-01-30T07:37:20;6.77;;;2.50;;
1715;SDS011;855;48.824;9.220;2023-01-30T07:39:47;10.63;;;2.63;;
1715;SDS011;855;48.824;9.220;2023-01-30T07:42:13;6.40;;;2.73;;
1715;SDS011;855;48.824;9.220;2023-01-30T07:44:40;7.60;;;4.90;;
1715;SDS011;855;48.824;9.220;2023-01-30T07:47:07;6.83;;;2.67;;
1715;SDS011;855;48.824;9.220;2023-01-30T07:49:34;6.67;;;2.97;;
1715;SDS011;855;48.824;9.220;2023-01-30T07:52:01;5.07;;;3.47;;
1715;SDS011;855;48.824;9.220;2023-01-30T07:54:29;5.90;;;2.50;;
1715;SDS011;855;48.824;9.220;2023-01-30T07:56:56;9.33;;;3.20;;
1715;SDS011;855;48.824;9.220;2023-01-30T07:59:22;3.33;;;2.20;;
1715;SDS011;855;48.824;9.220;2023-01-30T08:01:49;8.27;;;3.47;;
1715;SDS011;855;48.824;9.220;2023-01-30T08:04:16;3.23;;;1.83;;
1715;SDS011;855;48.824;9.220;2023-01-30T08:06:43;2.10;;;1.70;;
1715;SDS011;855;48.824;9.220;2023-01-30T08:09:10;6.50;;;2.83;;
1715;SDS011;855;48.824;9.220;2023-01-30T08:11:38;4.93;;;2.37;;
1715;SDS011;855;48.824;9.220;2023-01-30T08:14:05;7.63;;;3.20;;
1715;SDS011;855;48.824;9.220;2023-01-30T08:16:31;4.50;;;2.47;;
1715;SDS011;855;48.824;9.220;2023-01-30T08:18:58;9.67;;;3.67;;
1715;SDS011;855;48.824;9.220;2023-01-30T08:21:25;3.63;;;3.03;;
1715;SDS011;855;48.824;9.220;2023-01-30T08:23:52;4.13;;;2.03;;
1715;SDS011;855;48.824;9.220;2023-01-30T08:26:19;3.80;;;1.40;;
1715;SDS011;855;48.824;9.220;2023-01-30T08:28:47;2.97;;;1.70;;
1715;SDS011;855;48.824;9.220;2023-01-30T08:31:14;4.80;;;2.83;;
1715;SDS011;855;48.824;9.220;2023-01-30T08:33:41;4.63;;;2.23;;
1715;SDS011;855;48.824;9.220;2023-01-30T08:36:08;8.70;;;2.57;;
1715;SDS011;855;48.824;9.220;2023-01-30T08:38:35;5.33;;;2.20;;
1715;SDS011;855;48.824;9.220;2023-01-30T08:41:03;4.17;;;2.17;;
1715;SDS011;855;48.824;9.220;2023-01-30T08:43:31;6.87;;;3.23;;
1715;SDS011;855;48.824;9.220;2023-01-30T08:45:59;5.00;;;2.40;;
1715;SDS011;855;48.824;9.220;2023-01-30T08:48:26;5.03;;;2.60;;
1715;SDS011;855;48.824;9.220;2023-01-30T08:50:53;11.07;;;4.40;;
1715;SDS011;855;48.824;9.220;2023-01-30T08:53:21;8.00;;;3.67;;
1715;SDS011;855;48.824;9.220;2023-01-30T08:55:49;7.77;;;3.10;;
1715;SDS011;855;48.824;9.220;2023-01-30T08:58:16;7.80;;;2.50;;
1715;SDS011;855;48.824;9.220;2023-01-30T09:00:43;8.83;;;3.30;;
1715;SDS011;855;48.824;9.220;2023-01-30T09:03:12;9.20;;;3.50;;
1715;SDS011;855;48.824;9.220;2023-01-30T09:05:40;5.70;;;2.67;;
1715;SDS011;855;48.824;9.220;2023-01-30T09:08:07;7.10;;;2.80;;
1715;SDS011;855;48.824;9.220;2023-01-30T09:10:33;3.83;;;2.90;;
1715;SDS011;855;48.824;9.220;2023-01-30T09:13:00;6.03;;;2.27;;
1715;SDS011;855;48.824;9.220;2023-01-30T09:15:29;2.87;;;2.13;;
1715;SDS011;855;48.824;9.220;2023-01-30T09:17:56;2.43;;;1.53;;
1715;SDS011;855;48.824;9.220;2023-01-30T09:20:24;9.37;;;2.43;;
1715;SDS011;855;48.824;9.220;2023-01-30T09:22:51;5.13;;;2.20;;
1715;SDS011;855;48.824;9.220;2023-01-30T09:25:18;7.93;;;3.43;;
1715;SDS011;855;48.824;9.220;2023-01-30T09:27:46;3.33;;;2.40;;
1715;SDS011;855;48.824;9.220;2023-01-30T09:30:14;5.00;;;2.30;;
1715;SDS011;855;48.824;9.220;2023-01-30T09:32:41;3.17;;;2.00;;
1715;SDS011;855;48.824;9.220;2023-01-30T09:35:08;6.77;;;3.23;;
1715;SDS011;855;48.824;9.220;2023-01-30T09:37:36;5.87;;;3.40;;
1715;SDS011;855;48.824;9.220;2023-01-30T09:40:04;5.23;;;2.90;;
1715;SDS011;855;48.824;9.220;2023-01-30T09:45:45;6.93;;;3.17;;
1715;SDS011;855;48.824;9.220;2023-01-30T09:48:26;3.17;;;2.83;;
1715;SDS011;855;48.824;9.220;2023-01-30T09:51:14;3.67;;;2.90;;
1715;SDS011;855;48.824;9.220;2023-01-30T09:54:00;5.47;;;4.20;;
1715;SDS011;855;48.824;9.220;2023-01-30T09:56:57;4.10;;;2.73;;
1715;SDS011;855;48.824;9.220;2023-01-30T09:59:41;5.13;;;3.40;;
1715;SDS011;855;48.824;9.220;2023-01-30T10:02:23;8.53;;;3.37;;
1715;SDS011;855;48.824;9.220;2023-01-30T10:04:58;6.60;;;2.90;;
1715;SDS011;855;48.824;9.220;2023-01-30T10:07:29;3.27;;;1.10;;
1715;SDS011;855;48.824;9.220;2023-01-30T10:10:06;8.90;;;2.33;;
1715;SDS011;855;48.824;9.220;2023-01-30T10:12:41;2.97;;;0.87;;
1715;SDS011;855;48.824;9.220;2023-01-30T10:15:21;2.07;;;0.83;;
1715;SDS011;855;48.824;9.220;2023-01-30T10:17:58;1.63;;;1.03;;
1715;SDS011;855;48.824;9.220;2023-01-30T10:20:49;1.10;;;1.03;;
1715;SDS011;855;48.824;9.220;2023-01-30T10:23:32;4.73;;;1.73;;
1715;SDS011;855;48.824;9.220;2023-01-30T10:26:14;1.27;;;1.17;;
1715;SDS011;855;48.824;9.220;2023-01-30T10:28:46;1.43;;;1.17;;
1715;SDS011;855;48.824;9.220;2023-01-30T10:31:21;1.27;;;1.00;;
1715;SDS011;855;48.824;9.220;2023-01-30T10:33:54;0.83;;;0.73;;
1715;SDS011;855;48.824;9.220;2023-01-30T10:36:26;0.90;;;0.80;;
1715;SDS011;855;48.824;9.220;2023-01-30T10:38:58;0.87;;;0.73;;
1715;SDS011;855;48.824;9.220;2023-01-30T10:41:30;1.23;;;0.70;;
1715;SDS011;855;48.824;9.220;2023-01-30T10:44:01;1.33;;;1.00;;
1715;SDS011;855;48.824;9.220;2023-01-30T10:46:33;0.77;;;0.70;;
1715;SDS011;855;48.824;9.220;2023-01-30T10:49:14;5.10;;;0.93;;
1715;SDS011;855;48.824;9.220;2023-01-30T10:51:47;1.80;;;1.13;;
1715;SDS011;855;48.824;9.220;2023-01-30T10:54:22;3.30;;;1.37;;
1715;SDS011;855;48.824;9.220;2023-01-30T10:56:56;1.10;;;0.90;;
1715;SDS011;855;48.824;9.220;2023-01-30T10:59:31;2.67;;;1.97;;
1715;SDS011;855;48.824;9.220;2023-01-30T11:02:13;1.90;;;1.17;;
1715;SDS011;855;48.824;9.220;2023-01-30T11:04:49;0.83;;;0.73;;
1715;SDS011;855;48.824;9.220;2023-01-30T11:07:23;2.10;;;1.27;;
1715;SDS011;855;48.824;9.220;2023-01-30T11:09:50;3.90;;;2.73;;
1715;SDS011;855;48.824;9.220;2023-01-30T11:12:18;2.43;;;1.43;;
1715;SDS011;855;48.824;9.220;2023-01-30T11:14:52;2.20;;;0.80;;
1715;SDS011;855;48.824;9.220;2023-01-30T11:17:27;2.07;;;1.30;;
1715;SDS011;855;48.824;9.220;2023-01-30T11:19:56;1.07;;;0.97;;
1715;SDS011;855;48.824;9.220;2023-01-30T11:22:26;1.03;;;0.93;;
1715;SDS011;855;48.824;9.220;2023-01-30T11:24:59;0.77;;;0.70;;
1715;SDS011;855;48.824;9.220;2023-01-30T11:27:30;1.00;;;0.60;;
1715;SDS011;855;48.824;9.220;2023-01-30T11:30:03;0.70;;;0.40;;
1715;SDS011;855;48.824;9.220;2023-01-30T11:32:38;0.83;;;0.73;;
1715;SDS011;855;48.824;9.220;2023-01-30T11:37:53;6.73;;;1.37;;
1715;SDS011;855;48.824;9.220;2023-01-30T11:40:23;0.47;;;0.43;;
1715;SDS011;855;48.824;9.220;2023-01-30T11:43:00;4.53;;;0.97;;
1715;SDS011;855;48.824;9.220;2023-01-30T11:45:30;0.93;;;0.60;;
1715;SDS011;855;48.824;9.220;2023-01-30T11:48:03;1.17;;;1.10;;
1715;SDS011;855;48.824;9.220;2023-01-30T11:50:32;0.60;;;0.57;;
1715;SDS011;855;48.824;9.220;2023-01-30T11:53:10;3.70;;;0.60;;
1715;SDS011;855;48.824;9.220;2023-01-30T11:55:46;0.90;;;0.80;;
1715;SDS011;855;48.824;9.220;2023-01-30T11:58:14;2.20;;;1.17;;
1715;SDS011;855;48.824;9.220;2023-01-30T12:00:45;0.87;;;0.80;;
1715;SDS011;855;48.824;9.220;2023-01-30T12:03:14;2.60;;;0.97;;
1715;SDS011;855;48.824;9.220;2023-01-30T12:05:44;1.30;;;1.20;;
1715;SDS011;855;48.824;9.220;2023-01-30T12:08:20;0.80;;;0.80;;
1715;SDS011;855;48.824;9.220;2023-01-30T12:10:51;2.57;;;1.50;;
1715;SDS011;855;48.824;9.220;2023-01-30T12:13:21;2.97;;;1.33;;
1715;SDS011;855;48.824;9.220;2023-01-30T12:15:55;2.80;;;2.07;;
1715;SDS011;855;48.824;9.220;2023-01-30T12:18:37;2.07;;;1.10;;
1715;SDS011;855;48.824;9.220;2023-01-30T12:21:11;1.90;;;1.37;;
1715;SDS011;855;48.824;9.220;2023-01-30T12:23:47;3.77;;;1.73;;
1715;SDS011;855;48.824;9.220;2023-01-30T12:26:19;1.53;;;1.43;;
1715;SDS011;855;48.824;9.220;2023-01-30T12:28:54;1.67;;;1.30;;
1715;SDS011;855;48.824;9.220;2023-01-30T12:31:28;5.87;;;2.37;;
1715;SDS011;855;48.824;9.220;2023-01-30T12:34:00;2.00;;;1.07;;
1715;SDS011;855;48.824;9.220;2023-01-30T12:36:30;1.60;;;1.20;;
1715;SDS011;855;48.824;9.220;2023-01-30T12:39:12;0.90;;;0.87;;
1715;SDS011;855;48.824;9.220;2023-01-30T12:41:54;9.27;;;1.53;;
1715;SDS011;855;48.824;9.220;2023-01-30T12:47:47;2.63;;;1.47;;
1715;SDS011;855;48.824;9.220;2023-01-30T12:50:44;5.07;;;4.03;;
1715;SDS011;855;48.824;9.220;2023-01-30T12:53:30;3.47;;;1.50;;
1715;SDS011;855;48.824;9.220;2023-01-30T12:56:22;2.83;;;1.30;;
1715;SDS011;855;48.824;9.220;2023-01-30T12:59:08;2.27;;;1.90;;
1715;SDS011;855;48.824;9.220;2023-01-30T13:01:46;3.03;;;1.10;;
1715;SDS011;855;48.824;9.220;2023-01-30T13:04:23;1.57;;;1.30;;
1715;SDS011;855;48.824;9.220;2023-01-30T13:07:05;1.70;;;1.23;;
1715;SDS011;855;48.824;9.220;2023-01-30T13:09:45;6.63;;;2.07;;
1715;SDS011;855;48.824;9.220;2023-01-30T13:12:22;1.23;;;1.17;;
1715;SDS011;855;48.824;9.220;2023-01-30T13:14:58;2.50;;;2.30;;
1715;SDS011;855;48.824;9.220;2023-01-30T13:17:43;2.20;;;1.43;;
1715;SDS011;855;48.824;9.220;2023-01-30T13:20:31;1.67;;;1.20;;
1715;SDS011;855;48.824;9.220;2023-01-30T13:23:09;0.87;;;0.80;;
1715;SDS011;855;48.824;9.220;2023-01-30T13:25:44;1.57;;;1.03;;
1715;SDS011;855;48.824;9.220;2023-01-30T13:28:18;2.43;;;1.63;;
1715;SDS011;855;48.824;9.220;2023-01-30T13:30:48;1.30;;;1.20;;
1715;SDS011;855;48.824;9.220;2023-01-30T13:33:20;2.97;;;2.43;;
1715;SDS011;855;48.824;9.220;2023-01-30T13:35:50;2.07;;;1.10;;
1715;SDS011;855;48.824;9.220;2023-01-30T13:38:22;1.53;;;1.37;;
1715;SDS011;855;48.824;9.220;2023-01-30T13:40:52;2.77;;;1.10;;
1715;SDS011;855;48.824;9.220;2023-01-30T13:43:23;1.60;;;0.90;;
1715;SDS011;855;48.824;9.220;2023-01-30T13:45:53;0.73;;;0.73;;
1715;SDS011;855;48.824;9.220;2023-01-30T13:48:28;1.07;;;0.70;;
1715;SDS011;855;48.824;9.220;2023-01-30T13:51:17;0.83;;;0.80;;
1715;SDS011;855;48.824;9.220;2023-01-30T13:54:00;0.83;;;0.80;;
1715;SDS011;855;48.824;9.220;2023-01-30T13:56:33;0.87;;;0.70;;
1715;SDS011;855;48.824;9.220;2023-01-30T13:59:08;0.60;;;0.50;;
1715;SDS011;855;48.824;9.220;2023-01-30T14:04:43;1.63;;;1.00;;
1715;SDS011;855;48.824;9.220;2023-01-30T14:07:13;0.97;;;0.87;;
1715;SDS011;855;48.824;9.220;2023-01-30T14:09:43;1.17;;;0.87;;
1715;SDS011;855;48.824;9.220;2023-01-30T14:12:16;0.90;;;0.80;;
1715;SDS011;855;48.824;9.220;2023-01-30T14:14:55;5.00;;;1.67;;
1715;SDS011;855;48.824;9.220;2023-01-30T14:17:25;1.17;;;0.93;;
1715;SDS011;855;48.824;9.220;2023-01-30T14:19:56;1.03;;;0.93;;
1715;SDS011;855;48.824;9.220;2023-01-30T14:22:27;3.90;;;0.80;;
1715;SDS011;855;48.824;9.220;2023-01-30T14:40:33;3.73;;;1.10;;
1715;SDS011;855;48.824;9.220;2023-01-30T14:43:25;2.17;;;0.90;;
1715;SDS011;855;48.824;9.220;2023-01-30T14:49:23;1.67;;;0.80;;
1715;SDS011;855;48.824;9.220;2023-01-30T14:51:52;1.73;;;0.77;;
1715;SDS011;855;48.824;9.220;2023-01-30T14:54:21;0.63;;;0.57;;
1715;SDS011;855;48.824;9.220;2023-01-30T14:56:56;1.60;;;0.80;;
1715;SDS011;855;48.824;9.220;2023-01-30T14:59:26;0.80;;;0.63;;
1715;SDS011;855;48.824;9.220;2023-01-30T15:02:07;1.07;;;1.00;;
1715;SDS011;855;48.824;9.220;2023-01-30T15:04:51;2.97;;;1.10;;
1715;SDS011;855;48.824;9.220;2023-01-30T15:07:25;1.90;;;0.80;;
1715;SDS011;855;48.824;9.220;2023-01-30T15:09:56;1.83;;;1.03;;
1715;SDS011;855;48.824;9.220;2023-01-30T15:15:21;1.33;;;1.20;;
1715;SDS011;855;48.824;9.220;2023-01-30T15:18:02;1.30;;;1.23;;
1715;SDS011;855;48.824;9.220;2023-01-30T15:20:42;0.77;;;0.53;;
1715;SDS011;855;48.824;9.220;2023-01-30T15:26:20;3.30;;;0.90;;
1715;SDS011;855;48.824;9.220;2023-01-30T15:29:02;1.13;;;1.03;;
1715;SDS011;855;48.824;9.220;2023-01-30T15:31:54;1.80;;;1.30;;
1715;SDS011;855;48.824;9.220;2023-01-30T15:34:21;2.70;;;1.00;;
1715;SDS011;855;48.824;9.220;2023-01-30T15:36:48;2.53;;;1.03;;
1715;SDS011;855;48.824;9.220;2023-01-30T15:39:17;7.50;;;1.80;;
1715;SDS011;855;48.824;9.220;2023-01-30T15:41:45;1.70;;;1.50;;
1715;SDS011;855;48.824;9.220;2023-01-30T15:44:19;1.53;;;1.43;;
1715;SDS011;855;48.824;9.220;2023-01-30T15:47:12;3.97;;;2.23;;
1715;SDS011;855;48.824;9.220;2023-01-30T15:49:56;5.43;;;2.00;;
1715;SDS011;855;48.824;9.220;2023-01-30T15:52:29;4.70;;;1.30;;
1715;SDS011;855;48.824;9.220;2023-01-30T15:55:02;2.00;;;1.40;;
1715;SDS011;855;48.824;9.220;2023-01-30T15:57:30;1.73;;;1.63;;
1715;SDS011;855;48.824;9.220;2023-01-30T16:00:01;6.40;;;1.20;;
1715;SDS011;855;48.824;9.220;2023-01-30T16:02:30;1.57;;;1.27;;
1715;SDS011;855;48.824;9.220;2023-01-30T16:05:08;4.90;;;2.20;;
1715;SDS011;855;48.824;9.220;2023-01-30T16:07:39;5.10;;;2.30;;
1715;SDS011;855;48.824;9.220;2023-01-30T16:10:10;3.53;;;1.73;;
1715;SDS011;855;48.824;9.220;2023-01-30T16:12:38;7.43;;;2.50;;
1715;SDS011;855;48.824;9.220;2023-01-30T16:15:12;1.10;;;1.00;;
1715;SDS011;855;48.824;9.220;2023-01-30T16:17:47;5.00;;;2.70;;
1715;SDS011;855;48.824;9.220;2023-01-30T16:20:20;2.77;;;1.77;;
1715;SDS011;855;48.824;9.220;2023-01-30T16:22:47;2.60;;;1.20;;
1715;SDS011;855;48.824;9.220;2023-01-30T16:25:15;4.93;;;2.00;;
1715;SDS011;855;48.824;9.220;2023-01-30T16:27:45;0.93;;;0.87;;